Jasper S — V2CQ4 — position and weather

sailwx.info

Track history (hours):
 
Tides and Currents Weather Stations Pressure Air Temp Water Temp Dewpoint Dewpoint Depression Visibility Wind Speed Wind Dir Waves Ship Positions

Jasper S

Last reported at 2016-Aug-27 01:29 UTC. Time now 2016-Aug-28 06:59 UTC.
Position N 36°44' E 005°10'.

Length 148 m; draft 8.5 m.

Type: Ship (hazmat cat A). MMSI: 305079000.

Date/timePositionNaut miles runAvg speedWind from/ knotsBaromVisibWave heightAir tempDewpointWater temp
2016-Aug-27 01:29N 36°44' E 005°10'  
2016-Aug-20 10:33N 43°08' E 005°01'1413.7
2016-Aug-20 09:33N 43°22' E 004°58'6 6.1
2016-Aug-20 08:31N 43°25' E 004°50'0 0.0
2016-Aug-20 07:33N 43°25' E 004°50'0 0.0
2016-Aug-20 06:33N 43°25' E 004°50'0 0.0
2016-Aug-20 05:32N 43°25' E 004°50'0 0.0
2016-Aug-20 04:32N 43°25' E 004°50'0 0.0
2016-Aug-20 03:32N 43°25' E 004°50'0 0.1
2016-Aug-20 02:33N 43°25' E 004°50'5 5.4
2016-Aug-20 01:34N 43°22' E 004°57'8 8.4
2016-Aug-20 00:34N 43°14' E 004°57'5 1.1
2016-Aug-19 20:15N 43°09' E 004°55'3 3.9
2016-Aug-19 19:22N 43°06' E 004°55'1111.5
2016-Aug-19 18:28N 42°56' E 004°48'8 8.3
2016-Aug-19 17:33N 42°50' E 004°43'2 0.1
2016-Aug-19 01:17N 42°52' E 004°41'1 1.1
2016-Aug-19 00:20N 42°52' E 004°40'1 0.9
2016-Aug-18 23:29N 42°53' E 004°39'5 0.6
2016-Aug-18 15:17N 42°58' E 004°38'8 0.7
2016-Aug-18 03:25N 43°05' E 004°32'0 0.4
2016-Aug-18 02:13N 43°05' E 004°33'  
Track history (hours):
 
Tides and Currents Weather Stations Pressure Air Temp Water Temp Dewpoint Dewpoint Depression Visibility Wind Speed Wind Dir Waves Ship Positions

Jasper S

Last reported at 2016-Aug-27 01:29 UTC. Time now 2016-Aug-28 06:59 UTC.
Position N 36°44' E 005°10'.

Length 148 m; draft 8.5 m.

Type: Ship (hazmat cat A). MMSI: 305079000.

Date/timePositionNaut miles runAvg speedWind from/ knotsBaromVisibWave heightAir tempDewpointWater temp
2016-Aug-27 01:29N 36°44' E 005°10'  
2016-Aug-20 10:33N 43°08' E 005°01'1413.7
2016-Aug-20 09:33N 43°22' E 004°58'6 6.1
2016-Aug-20 08:31N 43°25' E 004°50'0 0.0
2016-Aug-20 07:33N 43°25' E 004°50'0 0.0
2016-Aug-20 06:33N 43°25' E 004°50'0 0.0
2016-Aug-20 05:32N 43°25' E 004°50'0 0.0
2016-Aug-20 04:32N 43°25' E 004°50'0 0.0
2016-Aug-20 03:32N 43°25' E 004°50'0 0.1
2016-Aug-20 02:33N 43°25' E 004°50'5 5.4
2016-Aug-20 01:34N 43°22' E 004°57'8 8.4
2016-Aug-20 00:34N 43°14' E 004°57'5 1.1
2016-Aug-19 20:15N 43°09' E 004°55'3 3.9
2016-Aug-19 19:22N 43°06' E 004°55'1111.5
2016-Aug-19 18:28N 42°56' E 004°48'8 8.3
2016-Aug-19 17:33N 42°50' E 004°43'2 0.1
2016-Aug-19 01:17N 42°52' E 004°41'1 1.1
2016-Aug-19 00:20N 42°52' E 004°40'1 0.9
2016-Aug-18 23:29N 42°53' E 004°39'5 0.6
2016-Aug-18 15:17N 42°58' E 004°38'8 0.7
2016-Aug-18 03:25N 43°05' E 004°32'0 0.4
2016-Aug-18 02:13N 43°05' E 004°33'  

Dump ship's entire track history